createdAt,value
2022-11-05T00:02:03.978Z,0.50
2022-11-05T00:04:50.407Z,0.28
2022-11-05T00:07:45.982Z,0.40
2022-11-05T00:10:35.953Z,0.20
2022-11-05T00:13:21.850Z,0.28
2022-11-05T00:16:07.998Z,0.40
2022-11-05T00:18:36.339Z,0.40
2022-11-05T00:21:03.593Z,0.30
2022-11-05T00:23:49.843Z,0.28
2022-11-05T00:26:16.628Z,0.30
2022-11-05T00:28:49.960Z,0.60
2022-11-05T00:31:18.195Z,0.30
2022-11-05T00:33:46.617Z,0.30
2022-11-05T00:36:14.082Z,0.38
2022-11-05T00:38:41.502Z,0.40
2022-11-05T00:41:08.420Z,0.30
2022-11-05T00:43:54.452Z,0.50
2022-11-05T00:46:21.306Z,0.40
2022-11-05T00:49:06.664Z,0.40
2022-11-05T00:51:36.262Z,0.50
2022-11-05T00:54:03.666Z,0.30
2022-11-05T00:56:31.016Z,0.30
2022-11-05T00:58:58.279Z,0.20
2022-11-05T01:01:26.434Z,0.30
2022-11-05T01:03:55.659Z,0.30
2022-11-05T01:06:23.231Z,0.52
2022-11-05T01:08:51.416Z,0.50
2022-11-05T01:11:35.229Z,0.30
2022-11-05T01:14:14.246Z,0.77
2022-11-05T01:16:41.165Z,0.40
2022-11-05T01:19:10.494Z,0.45
2022-11-05T01:21:38.121Z,0.30
2022-11-05T01:24:05.812Z,0.65
2022-11-05T01:26:34.140Z,0.47
2022-11-05T01:29:00.921Z,0.40
2022-11-05T01:31:29.850Z,0.40
2022-11-05T01:33:57.925Z,0.50
2022-11-05T01:36:25.335Z,0.50
2022-11-05T01:38:54.567Z,0.50
2022-11-05T01:41:21.355Z,0.40
2022-11-05T01:43:57.769Z,0.40
2022-11-05T01:46:36.231Z,0.50
2022-11-05T01:49:32.303Z,0.50
2022-11-05T01:52:04.545Z,0.43
2022-11-05T01:54:35.827Z,0.60
2022-11-05T01:57:10.382Z,0.45
2022-11-05T02:00:05.430Z,0.75
2022-11-05T02:02:40.164Z,0.50
2022-11-05T02:07:38.643Z,0.70
2022-11-05T02:10:09.278Z,0.55
2022-11-05T02:12:39.315Z,0.45
2022-11-05T02:15:06.771Z,0.60
2022-11-05T02:17:48.949Z,0.57
2022-11-05T02:20:52.699Z,0.70
2022-11-05T02:24:11.651Z,0.50
2022-11-05T02:27:08.450Z,0.52
2022-11-05T02:30:09.980Z,0.50
2022-11-05T02:32:46.580Z,0.45
2022-11-05T02:35:56.896Z,0.50
2022-11-05T02:38:46.450Z,0.50
2022-11-05T02:41:26.054Z,0.50
2022-11-05T02:44:00.258Z,0.75
2022-11-05T02:46:39.260Z,0.52
2022-11-05T02:49:32.107Z,0.60
2022-11-05T02:52:05.203Z,0.50
2022-11-05T02:54:47.374Z,0.50
2022-11-05T02:57:15.464Z,0.63
2022-11-05T02:59:42.959Z,0.60
2022-11-05T03:02:14.582Z,0.60
2022-11-05T03:04:41.590Z,0.50
2022-11-05T03:07:17.484Z,0.63
2022-11-05T03:10:02.213Z,0.50
2022-11-05T03:12:52.578Z,0.50
2022-11-05T03:15:35.410Z,0.40
2022-11-05T03:18:29.074Z,0.70
2022-11-05T03:21:12.517Z,0.40
2022-11-05T03:23:46.395Z,0.50
2022-11-05T03:26:32.051Z,0.40
2022-11-05T03:29:10.672Z,0.57
2022-11-05T03:31:41.402Z,0.52
2022-11-05T03:34:12.704Z,0.50
2022-11-05T03:36:51.430Z,0.32
2022-11-05T03:39:28.010Z,0.45
2022-11-05T03:42:01.931Z,0.47
2022-11-05T03:44:35.497Z,0.52
2022-11-05T03:47:10.121Z,0.43
2022-11-05T03:49:50.404Z,0.30
2022-11-05T03:52:20.588Z,0.50
2022-11-05T03:54:48.283Z,0.40
2022-11-05T03:57:30.688Z,0.38
2022-11-05T03:59:59.895Z,0.30
2022-11-05T04:02:28.059Z,0.50
2022-11-05T04:04:57.993Z,0.60
2022-11-05T04:07:44.318Z,0.50
2022-11-05T04:10:34.023Z,0.40
2022-11-05T04:13:22.504Z,0.60
2022-11-05T04:16:08.156Z,0.40
2022-11-05T04:18:36.571Z,0.30
2022-11-05T04:21:24.304Z,0.55
2022-11-05T04:24:11.112Z,0.47
2022-11-05T04:26:44.893Z,0.50
2022-11-05T04:29:30.669Z,0.60
2022-11-05T04:31:58.490Z,0.60
2022-11-05T04:34:25.827Z,0.50
2022-11-05T04:36:53.452Z,0.60
2022-11-05T04:39:21.237Z,0.50
2022-11-05T04:41:50.363Z,0.60
2022-11-05T04:44:21.169Z,0.40
2022-11-05T04:46:48.839Z,0.57
2022-11-05T04:49:19.719Z,0.40
2022-11-05T04:51:47.385Z,0.50
2022-11-05T04:54:14.646Z,0.60
2022-11-05T04:56:41.312Z,0.73
2022-11-05T04:59:09.410Z,0.73
2022-11-05T05:01:36.820Z,0.60
2022-11-05T05:04:03.895Z,0.60
2022-11-05T05:06:33.609Z,0.52
2022-11-05T05:09:04.308Z,0.60
2022-11-05T05:11:32.195Z,0.80
2022-11-05T05:14:03.390Z,0.70
2022-11-05T05:16:31.863Z,1.02
2022-11-05T05:19:00.043Z,0.63
2022-11-05T05:21:39.813Z,0.60
2022-11-05T05:24:13.067Z,0.57
2022-11-05T05:26:46.300Z,0.50
2022-11-05T05:29:18.982Z,0.60
2022-11-05T05:31:47.208Z,0.70
2022-11-05T05:34:15.467Z,0.40
2022-11-05T05:36:47.852Z,0.50
2022-11-05T05:39:18.728Z,0.60
2022-11-05T05:41:45.331Z,0.80
2022-11-05T05:44:12.259Z,0.63
2022-11-05T05:46:41.410Z,0.60
2022-11-05T05:49:17.377Z,0.50
2022-11-05T05:51:46.133Z,0.63
2022-11-05T05:54:14.202Z,0.63
2022-11-05T05:56:44.409Z,0.65
2022-11-05T06:01:47.625Z,0.47
2022-11-05T06:04:16.478Z,0.45
2022-11-05T06:06:47.084Z,0.60
2022-11-05T06:09:16.810Z,0.70
2022-11-05T06:11:47.285Z,0.60
2022-11-05T06:14:14.782Z,1.08
2022-11-05T06:16:42.464Z,0.52
2022-11-05T06:19:10.059Z,0.75
2022-11-05T06:21:45.399Z,0.73
2022-11-05T06:24:12.850Z,0.73
2022-11-05T06:26:42.884Z,0.70
2022-11-05T06:29:10.911Z,0.57
2022-11-05T06:31:37.506Z,0.70
2022-11-05T06:34:04.879Z,0.68
2022-11-05T06:36:33.399Z,0.55
2022-11-05T06:39:02.838Z,0.70
2022-11-05T06:41:29.712Z,1.08
2022-11-05T06:44:00.641Z,0.80
2022-11-05T06:46:30.854Z,0.80
2022-11-05T06:48:57.424Z,0.77
2022-11-05T06:51:25.251Z,0.90
2022-11-05T06:53:55.334Z,0.90
2022-11-05T06:56:22.129Z,0.80
2022-11-05T06:59:15.266Z,0.90
2022-11-05T07:02:06.459Z,0.77
2022-11-05T07:04:42.397Z,0.88
2022-11-05T07:07:17.633Z,1.10
2022-11-05T07:09:46.032Z,0.90
2022-11-05T07:12:12.798Z,0.82
2022-11-05T07:14:40.687Z,1.00
2022-11-05T07:17:11.344Z,0.88
2022-11-05T07:20:00.887Z,0.90
2022-11-05T07:22:28.528Z,1.10
2022-11-05T07:25:03.557Z,0.80
2022-11-05T07:27:31.298Z,0.93
2022-11-05T07:32:28.836Z,0.90
2022-11-05T07:34:59.440Z,0.90
2022-11-05T07:37:27.190Z,0.77
2022-11-05T07:39:54.422Z,0.95
2022-11-05T07:42:22.615Z,1.10
2022-11-05T07:44:49.449Z,0.90
2022-11-05T07:47:16.439Z,1.55
2022-11-05T07:49:43.665Z,1.08
2022-11-05T07:52:10.998Z,1.20
2022-11-05T07:54:38.243Z,1.42
2022-11-05T07:57:05.252Z,0.90
2022-11-05T07:59:35.543Z,1.40
2022-11-05T08:02:06.123Z,1.10
2022-11-05T08:04:38.531Z,0.80
2022-11-05T08:07:05.477Z,1.10
2022-11-05T08:09:33.212Z,1.15
2022-11-05T08:12:10.546Z,0.85
2022-11-05T08:14:38.396Z,0.98
2022-11-05T08:17:05.743Z,0.75
2022-11-05T08:19:33.168Z,1.00
2022-11-05T08:22:00.339Z,0.98
2022-11-05T08:24:27.554Z,0.95
2022-11-05T08:26:55.226Z,0.90
2022-11-05T08:29:22.914Z,1.40
2022-11-05T08:31:53.331Z,1.05
2022-11-05T08:34:20.244Z,1.40
2022-11-05T08:36:47.988Z,1.40
2022-11-05T08:39:21.263Z,1.00
2022-11-05T08:41:49.118Z,1.40
2022-11-05T08:44:16.248Z,1.15
2022-11-05T08:46:42.874Z,1.20
2022-11-05T08:49:09.626Z,1.65
2022-11-05T08:51:37.052Z,1.40
2022-11-05T08:54:05.619Z,1.48
2022-11-05T08:56:32.682Z,1.48
2022-11-05T08:59:01.368Z,1.42
2022-11-05T09:01:28.933Z,1.70
2022-11-05T09:04:00.786Z,1.75
2022-11-05T09:06:31.454Z,1.42
2022-11-05T09:08:58.337Z,1.63
2022-11-05T09:11:49.592Z,1.60
2022-11-05T09:14:16.353Z,1.60
2022-11-05T09:16:43.820Z,1.70
2022-11-05T09:19:18.238Z,1.70
2022-11-05T09:21:46.557Z,1.58
2022-11-05T09:24:30.967Z,1.83
2022-11-05T09:26:57.844Z,1.50
2022-11-05T09:29:25.488Z,1.90
2022-11-05T09:31:58.209Z,2.00
2022-11-05T09:34:28.401Z,2.03
2022-11-05T09:36:57.620Z,1.65
2022-11-05T09:39:24.708Z,1.95
2022-11-05T09:42:05.401Z,1.70
2022-11-05T09:44:43.708Z,1.90
2022-11-05T09:47:22.790Z,1.60
2022-11-05T09:49:53.902Z,2.20
2022-11-05T09:52:22.896Z,1.63
2022-11-05T09:54:52.452Z,2.17
2022-11-05T09:57:26.085Z,1.60
2022-11-05T09:59:57.955Z,2.03
2022-11-05T10:02:34.042Z,2.10
2022-11-05T10:05:09.991Z,1.90
2022-11-05T10:08:05.864Z,2.13
2022-11-05T10:10:57.015Z,2.20
2022-11-05T10:13:35.029Z,1.88
2022-11-05T10:16:12.504Z,1.70
2022-11-05T10:18:47.463Z,1.92
2022-11-05T10:21:37.578Z,1.95
2022-11-05T10:24:19.792Z,2.42
2022-11-05T10:26:56.066Z,2.25
2022-11-05T10:29:33.301Z,2.00
2022-11-05T10:32:07.407Z,1.98
2022-11-05T10:34:38.749Z,1.70
2022-11-05T10:37:06.626Z,1.70
2022-11-05T10:39:34.793Z,1.55
2022-11-05T10:42:11.786Z,1.88
2022-11-05T10:45:14.520Z,2.13
2022-11-05T10:47:50.265Z,2.00
2022-11-05T10:50:23.570Z,1.90
2022-11-05T10:52:59.799Z,2.20
2022-11-05T10:55:37.445Z,2.20
2022-11-05T10:58:20.419Z,1.80
2022-11-05T11:00:54.373Z,1.95
2022-11-05T11:03:42.221Z,2.00
2022-11-05T11:06:32.794Z,1.90
2022-11-05T11:09:07.290Z,2.00
2022-11-05T11:11:42.626Z,1.73
2022-11-05T11:14:12.913Z,1.83
2022-11-05T11:16:43.391Z,1.90
2022-11-05T11:19:22.475Z,1.50
2022-11-05T11:22:09.642Z,1.83
2022-11-05T11:24:42.497Z,2.00
2022-11-05T11:27:17.756Z,2.05
2022-11-05T11:29:56.843Z,2.00
2022-11-05T11:32:39.489Z,1.80
2022-11-05T11:35:18.963Z,2.20
2022-11-05T11:37:48.851Z,1.92
2022-11-05T11:42:56.919Z,2.20
2022-11-05T11:45:47.162Z,1.90
2022-11-05T11:48:19.321Z,2.35
2022-11-05T11:50:50.196Z,2.00
2022-11-05T11:53:20.417Z,2.00
2022-11-05T11:56:06.157Z,1.80
2022-11-05T11:58:44.530Z,2.30
2022-11-05T12:01:51.797Z,1.95
2022-11-05T12:04:41.177Z,1.88
2022-11-05T12:07:27.127Z,2.05
2022-11-05T12:10:01.861Z,2.10
2022-11-05T12:13:01.825Z,2.15
2022-11-05T12:15:53.476Z,1.98
2022-11-05T12:18:42.363Z,1.83
2022-11-05T12:21:13.501Z,1.88
2022-11-05T12:23:54.819Z,1.90
2022-11-05T12:26:40.919Z,1.63
2022-11-05T12:29:36.436Z,2.00
2022-11-05T12:32:28.789Z,1.85
2022-11-05T12:34:56.344Z,1.63
2022-11-05T12:37:41.414Z,1.80
2022-11-05T12:40:30.196Z,1.85
2022-11-05T12:43:32.809Z,2.00
2022-11-05T12:46:26.764Z,2.35
2022-11-05T12:49:15.831Z,2.47
2022-11-05T12:51:53.136Z,2.00
2022-11-05T12:54:26.716Z,1.80
2022-11-05T12:57:01.417Z,2.38
2022-11-05T12:59:46.982Z,1.98
2022-11-05T13:02:23.685Z,2.13
2022-11-05T13:05:04.747Z,1.80
2022-11-05T13:07:37.686Z,2.83
2022-11-05T13:10:36.869Z,2.45
2022-11-05T13:13:32.675Z,3.92
2022-11-05T13:16:07.493Z,1.92
2022-11-05T13:18:53.998Z,1.80
2022-11-05T13:21:29.539Z,2.08
2022-11-05T13:24:27.377Z,2.10
2022-11-05T13:27:08.325Z,2.10
2022-11-05T13:29:54.684Z,2.10
2022-11-05T13:32:24.583Z,2.40
2022-11-05T13:34:55.982Z,2.50
2022-11-05T13:37:56.174Z,2.25
2022-11-05T13:40:42.096Z,2.00
2022-11-05T13:43:36.446Z,2.03
2022-11-05T13:46:32.029Z,2.30
2022-11-05T13:49:16.990Z,1.90
2022-11-05T13:51:52.354Z,2.22
2022-11-05T13:54:38.341Z,1.95
2022-11-05T13:57:14.446Z,2.20
2022-11-05T14:00:32.688Z,2.30
2022-11-05T14:03:15.471Z,2.17
2022-11-05T14:05:43.323Z,2.10
2022-11-05T14:08:24.426Z,2.20
2022-11-05T14:11:00.449Z,2.40
2022-11-05T14:13:38.420Z,2.20
2022-11-05T14:16:06.005Z,2.40
2022-11-05T14:19:06.448Z,2.28
2022-11-05T14:21:52.267Z,2.25
2022-11-05T14:24:19.588Z,2.53
2022-11-05T14:27:06.706Z,2.60
2022-11-05T14:29:42.615Z,2.72
2022-11-05T14:32:21.505Z,2.70
2022-11-05T14:35:17.908Z,2.10
2022-11-05T14:37:59.551Z,2.42
2022-11-05T14:40:44.549Z,2.42
2022-11-05T14:43:15.022Z,2.42
2022-11-05T14:45:52.875Z,2.40
2022-11-05T14:48:26.684Z,2.60
2022-11-05T14:50:53.591Z,2.20
2022-11-05T14:53:33.058Z,2.60
2022-11-05T14:56:16.242Z,2.03
2022-11-05T14:58:44.602Z,2.28
2022-11-05T15:01:14.306Z,2.17
2022-11-05T15:03:47.179Z,2.70
2022-11-05T15:06:22.285Z,2.47
2022-11-05T15:08:53.548Z,2.13
2022-11-05T15:11:22.215Z,2.58
2022-11-05T15:13:55.665Z,2.80
2022-11-05T15:16:31.360Z,3.13
2022-11-05T15:18:58.860Z,2.78
2022-11-05T15:21:28.548Z,3.15
2022-11-05T15:23:58.022Z,2.67
2022-11-05T15:26:43.799Z,3.05
2022-11-05T15:29:18.874Z,2.97
2022-11-05T15:31:50.715Z,3.20
2022-11-05T15:34:31.285Z,2.67
2022-11-05T15:37:20.553Z,3.30
2022-11-05T15:39:50.598Z,3.13
2022-11-05T15:42:23.695Z,3.33
2022-11-05T15:44:58.243Z,3.22
2022-11-05T15:47:31.138Z,3.40
2022-11-05T15:50:01.620Z,3.40
2022-11-05T15:52:40.455Z,3.25
2022-11-05T15:55:20.567Z,3.25
2022-11-05T15:57:51.608Z,3.50
2022-11-05T16:00:25.204Z,3.35
2022-11-05T16:03:00.759Z,3.28
2022-11-05T16:05:32.083Z,2.72
2022-11-05T16:08:00.776Z,3.20
2022-11-05T16:10:34.127Z,2.92
2022-11-05T16:13:28.732Z,2.90
2022-11-05T16:15:58.239Z,3.30
2022-11-05T16:18:32.838Z,3.75
2022-11-05T16:21:06.181Z,2.92
2022-11-05T16:24:01.367Z,3.10
2022-11-05T16:32:01.877Z,2.92
2022-11-05T16:34:32.312Z,3.33
2022-11-05T16:36:59.851Z,2.75
2022-11-05T16:39:28.098Z,2.70
2022-11-05T16:41:55.475Z,2.50
2022-11-05T16:44:23.247Z,2.60
2022-11-05T16:46:52.724Z,2.92
2022-11-05T16:49:19.785Z,2.50
2022-11-05T16:51:46.779Z,2.60
2022-11-05T16:54:13.772Z,2.30
2022-11-05T16:56:42.716Z,2.47
2022-11-05T16:59:18.259Z,2.35
2022-11-05T17:01:46.283Z,2.78
2022-11-05T17:06:43.829Z,2.20
2022-11-05T17:09:14.016Z,2.50
2022-11-05T17:14:12.420Z,2.60
2022-11-05T17:16:41.405Z,2.30
2022-11-05T17:19:18.158Z,2.45
2022-11-05T17:21:46.570Z,2.88
2022-11-05T17:24:13.450Z,2.67
2022-11-05T17:26:41.223Z,2.50
2022-11-05T17:29:08.374Z,2.67
2022-11-05T17:31:39.101Z,2.60
2022-11-05T17:34:06.379Z,2.60
2022-11-05T17:36:34.601Z,2.47
2022-11-05T17:39:02.103Z,2.60
2022-11-05T17:41:32.367Z,2.72
2022-11-05T17:43:59.383Z,2.92
2022-11-05T17:46:26.606Z,2.72
2022-11-05T17:48:54.380Z,2.90
2022-11-05T17:51:23.809Z,2.60
2022-11-05T17:53:53.436Z,2.60
2022-11-05T17:56:32.508Z,3.17
2022-11-05T17:59:06.007Z,2.92
2022-11-05T18:01:42.670Z,3.05
2022-11-05T18:04:10.789Z,2.88
2022-11-05T18:06:40.540Z,3.47
2022-11-05T18:09:08.996Z,2.95
2022-11-05T18:11:37.120Z,2.90
2022-11-05T18:14:04.630Z,3.28
2022-11-05T18:16:33.079Z,2.75
2022-11-05T18:19:00.194Z,3.08
2022-11-05T18:21:27.117Z,2.83
2022-11-05T18:23:54.131Z,2.90
2022-11-05T18:26:21.398Z,2.90
2022-11-05T18:28:48.370Z,2.70
2022-11-05T18:31:20.859Z,3.00
2022-11-05T18:33:48.983Z,2.78
2022-11-05T18:36:30.164Z,2.83
2022-11-05T18:39:05.136Z,3.00
2022-11-05T18:41:35.273Z,3.45
2022-11-05T18:44:03.828Z,2.85
2022-11-05T18:49:19.730Z,3.30
2022-11-05T18:51:46.786Z,2.90
2022-11-05T18:54:13.792Z,2.85
2022-11-05T18:56:45.458Z,2.90
2022-11-05T18:59:36.011Z,2.60
2022-11-05T19:02:03.556Z,2.80
2022-11-05T19:04:30.753Z,2.78
2022-11-05T19:07:04.173Z,2.58
2022-11-05T19:09:32.170Z,2.10
2022-11-05T19:11:58.831Z,2.58
2022-11-05T19:14:25.582Z,2.10
2022-11-05T19:16:55.051Z,2.05
2022-11-05T19:19:23.238Z,2.22
2022-11-05T19:21:53.519Z,2.10
2022-11-05T19:24:20.618Z,2.00
2022-11-05T19:26:48.837Z,1.77
2022-11-05T19:29:15.470Z,1.60
2022-11-05T19:31:43.355Z,1.80
2022-11-05T19:34:10.076Z,1.50
2022-11-05T19:36:38.055Z,1.77
2022-11-05T19:39:09.149Z,2.10
2022-11-05T19:41:36.663Z,2.13
2022-11-05T19:44:04.332Z,1.73
2022-11-05T19:46:32.233Z,1.95
2022-11-05T19:49:02.628Z,2.17
2022-11-05T19:51:31.849Z,1.90
2022-11-05T19:54:03.788Z,2.00
2022-11-05T19:56:34.036Z,2.05
2022-11-05T19:59:03.089Z,2.17
2022-11-05T20:01:31.564Z,1.98
2022-11-05T20:04:06.243Z,1.98
2022-11-05T20:06:38.694Z,1.83
2022-11-05T20:09:21.530Z,1.77
2022-11-05T20:11:56.677Z,2.10
2022-11-05T20:14:25.202Z,2.42
2022-11-05T20:16:55.745Z,2.20
2022-11-05T20:19:22.964Z,2.60
2022-11-05T20:21:50.560Z,2.40
2022-11-05T20:24:24.905Z,2.85
2022-11-05T20:26:56.833Z,2.67
2022-11-05T20:29:30.528Z,2.33
2022-11-05T20:32:03.556Z,2.15
2022-11-05T20:34:32.221Z,2.13
2022-11-05T20:37:00.285Z,2.30
2022-11-05T20:39:27.633Z,2.40
2022-11-05T20:41:56.769Z,2.35
2022-11-05T20:44:25.069Z,2.30
2022-11-05T20:46:52.672Z,2.30
2022-11-05T20:49:25.122Z,2.70
2022-11-05T20:51:53.417Z,2.70
2022-11-05T20:54:22.894Z,2.97
2022-11-05T20:56:50.125Z,2.60
2022-11-05T20:59:16.799Z,2.75
2022-11-05T21:01:44.474Z,2.88
2022-11-05T21:04:13.176Z,2.63
2022-11-05T21:06:40.671Z,2.60
2022-11-05T21:09:08.293Z,2.80
2022-11-05T21:11:59.785Z,2.38
2022-11-05T21:14:27.261Z,2.80
2022-11-05T21:16:58.904Z,3.33
2022-11-05T21:19:29.128Z,3.00
2022-11-05T21:21:55.975Z,3.03
2022-11-05T21:24:22.843Z,2.88
2022-11-05T21:26:51.347Z,3.00
2022-11-05T21:29:21.153Z,2.83
2022-11-05T21:31:48.884Z,2.65
2022-11-05T21:34:17.608Z,2.75
2022-11-05T21:36:49.279Z,2.70
2022-11-05T21:39:17.381Z,3.17
2022-11-05T21:41:44.771Z,3.00
2022-11-05T21:44:11.951Z,2.78
2022-11-05T21:46:40.256Z,2.80
2022-11-05T21:49:09.623Z,3.25
2022-11-05T21:51:56.670Z,3.50
2022-11-05T21:54:44.681Z,2.72
2022-11-05T21:57:36.663Z,2.63
2022-11-05T22:00:06.639Z,2.63
2022-11-05T22:02:34.068Z,3.00
2022-11-05T22:05:03.153Z,3.00
2022-11-05T22:07:35.497Z,2.75
2022-11-05T22:10:05.878Z,2.60
2022-11-05T22:12:33.223Z,2.85
2022-11-05T22:15:00.566Z,2.63
2022-11-05T22:17:28.046Z,2.53
2022-11-05T22:19:55.704Z,2.70
2022-11-05T22:22:23.010Z,2.90
2022-11-05T22:24:50.393Z,2.70
2022-11-05T22:27:21.425Z,2.83
2022-11-05T22:29:49.275Z,3.05
2022-11-05T22:32:18.280Z,2.25
2022-11-05T22:34:52.122Z,2.63
2022-11-05T22:37:24.105Z,2.33
2022-11-05T22:39:52.310Z,2.67
2022-11-05T22:42:19.710Z,2.72
2022-11-05T22:44:46.574Z,2.92
2022-11-05T22:47:14.292Z,2.78
2022-11-05T22:49:41.581Z,2.47
2022-11-05T22:52:08.528Z,3.22
2022-11-05T22:54:39.197Z,3.00
2022-11-05T22:57:07.541Z,2.78
2022-11-05T22:59:35.168Z,2.70
2022-11-05T23:02:08.261Z,3.17
2022-11-05T23:04:37.842Z,2.97
2022-11-05T23:07:27.711Z,3.10
2022-11-05T23:12:43.569Z,2.70
2022-11-05T23:15:31.263Z,3.00
2022-11-05T23:18:19.872Z,2.70
2022-11-05T23:21:20.556Z,2.78
2022-11-05T23:24:04.744Z,3.20
2022-11-05T23:26:52.792Z,2.72
2022-11-05T23:29:25.325Z,2.50
2022-11-05T23:32:11.872Z,2.63
2022-11-05T23:34:39.206Z,2.58
2022-11-05T23:37:25.270Z,3.05
2022-11-05T23:39:52.628Z,2.45
2022-11-05T23:42:38.459Z,2.58
2022-11-05T23:45:25.089Z,2.80
2022-11-05T23:48:10.922Z,2.63
2022-11-05T23:50:40.342Z,2.80
2022-11-05T23:53:09.532Z,2.70
2022-11-05T23:55:37.670Z,2.60
2022-11-05T23:58:08.510Z,2.63
